createdAt,value
2018-09-19T00:01:28.422Z,4.70
2018-09-19T00:05:30.583Z,5.07
2018-09-19T00:09:32.774Z,5.40
2018-09-19T00:13:34.972Z,3.97
2018-09-19T00:17:37.157Z,4.13
2018-09-19T00:21:39.328Z,4.03
2018-09-19T00:25:41.628Z,4.10
2018-09-19T00:29:43.898Z,4.27
2018-09-19T00:33:46.023Z,3.53
2018-09-19T00:37:48.275Z,4.63
2018-09-19T00:41:50.463Z,4.10
2018-09-19T00:45:52.639Z,2.90
2018-09-19T00:49:54.776Z,3.30
2018-09-19T00:53:56.931Z,3.03
2018-09-19T00:57:59.316Z,3.67
2018-09-19T01:02:01.484Z,3.33
2018-09-19T01:06:03.665Z,3.80
2018-09-19T01:10:05.929Z,3.77
2018-09-19T01:14:08.076Z,4.20
2018-09-19T01:18:10.262Z,4.57
2018-09-19T01:22:12.491Z,4.43
2018-09-19T01:26:14.668Z,4.50
2018-09-19T01:30:16.835Z,4.63
2018-09-19T01:34:18.974Z,3.87
2018-09-19T01:38:21.139Z,4.90
2018-09-19T01:42:23.328Z,4.63
2018-09-19T01:46:25.647Z,4.87
2018-09-19T01:50:27.863Z,4.57
2018-09-19T01:54:30.030Z,4.77
2018-09-19T01:58:32.235Z,4.97
2018-09-19T02:02:34.402Z,4.10
2018-09-19T02:06:37.444Z,4.97
2018-09-19T02:10:39.659Z,4.33
2018-09-19T02:14:41.801Z,5.80
2018-09-19T02:18:43.966Z,5.80
2018-09-19T02:22:46.145Z,4.23
2018-09-19T02:26:48.334Z,4.27
2018-09-19T02:30:50.516Z,5.43
2018-09-19T02:34:52.694Z,4.73
2018-09-19T02:38:55.912Z,3.97
2018-09-19T02:42:58.053Z,4.17
2018-09-19T02:47:00.236Z,4.77
2018-09-19T02:51:02.395Z,4.80
2018-09-19T02:55:04.745Z,4.70
2018-09-19T02:59:06.927Z,5.10
2018-09-19T03:03:09.107Z,5.60
2018-09-19T03:07:11.341Z,5.60
2018-09-19T03:11:13.554Z,5.33
2018-09-19T03:15:15.760Z,4.77
2018-09-19T03:19:17.937Z,5.77
2018-09-19T03:23:20.768Z,4.47
2018-09-19T03:27:23.135Z,5.13
2018-09-19T03:31:25.306Z,4.87
2018-09-19T03:35:27.632Z,4.63
2018-09-19T03:39:29.729Z,5.07
2018-09-19T03:43:32.033Z,5.73
2018-09-19T03:47:34.213Z,10.83
2018-09-19T03:51:37.098Z,6.17
2018-09-19T03:55:39.299Z,5.40
2018-09-19T03:59:41.458Z,5.73
2018-09-19T04:03:43.614Z,4.80
2018-09-19T04:07:45.765Z,5.63
2018-09-19T04:11:47.928Z,5.77
2018-09-19T04:17:19.661Z,5.50
2018-09-19T04:21:21.837Z,6.43
2018-09-19T04:25:24.043Z,5.23
2018-09-19T04:29:26.206Z,5.53
2018-09-19T04:33:28.370Z,6.27
2018-09-19T04:37:30.556Z,6.07
2018-09-19T04:41:33.999Z,6.63
2018-09-19T04:45:36.259Z,6.93
2018-09-19T04:49:39.547Z,6.60
2018-09-19T04:53:41.711Z,5.87
2018-09-19T04:57:43.903Z,7.60
2018-09-19T05:01:46.107Z,11.20
2018-09-19T05:05:48.328Z,7.80
2018-09-19T05:09:50.558Z,6.70
2018-09-19T05:13:52.933Z,6.23
2018-09-19T05:17:55.147Z,7.27
2018-09-19T05:21:57.373Z,6.87
2018-09-19T05:25:59.539Z,6.20
2018-09-19T05:30:01.888Z,7.50
2018-09-19T05:34:04.063Z,6.07
2018-09-19T05:38:06.414Z,7.60
2018-09-19T05:42:08.643Z,6.20
2018-09-19T05:46:10.833Z,7.00
2018-09-19T05:50:13.035Z,8.10
2018-09-19T05:54:15.231Z,6.00
2018-09-19T05:58:17.530Z,10.30
2018-09-19T06:02:19.735Z,8.87
2018-09-19T06:06:21.965Z,8.13
2018-09-19T06:10:24.189Z,7.20
2018-09-19T06:14:26.374Z,8.47
2018-09-19T06:18:28.774Z,12.77
2018-09-19T06:22:30.998Z,9.23
2018-09-19T06:26:33.187Z,7.30
2018-09-19T06:30:35.417Z,6.30
2018-09-19T06:34:37.663Z,7.77
2018-09-19T06:38:39.806Z,11.60
2018-09-19T06:42:42.045Z,8.20
2018-09-19T06:46:44.229Z,6.47
2018-09-19T06:50:46.427Z,6.10
2018-09-19T06:54:48.669Z,6.00
2018-09-19T06:58:51.947Z,6.03
2018-09-19T07:02:55.183Z,7.80
2018-09-19T07:06:58.449Z,6.43
2018-09-19T07:11:01.280Z,9.23
2018-09-19T07:15:03.806Z,7.43
2018-09-19T07:19:06.236Z,7.07
2018-09-19T07:23:08.445Z,6.17
2018-09-19T07:27:10.636Z,7.27
2018-09-19T07:31:12.987Z,4.97
2018-09-19T07:35:15.112Z,5.57
2018-09-19T07:39:17.341Z,4.07
2018-09-19T07:43:19.559Z,4.43
2018-09-19T07:47:21.736Z,4.23
2018-09-19T07:51:23.945Z,4.07
2018-09-19T07:55:26.326Z,4.80
2018-09-19T07:59:28.415Z,3.70
2018-09-19T08:03:30.617Z,3.90
2018-09-19T08:07:32.913Z,4.50
2018-09-19T08:11:35.252Z,4.10
2018-09-19T08:15:37.384Z,2.77
2018-09-19T08:19:39.614Z,4.30
2018-09-19T08:23:41.866Z,4.53
2018-09-19T08:27:44.000Z,5.50
2018-09-19T08:31:46.908Z,5.27
2018-09-19T08:35:49.116Z,4.27
2018-09-19T08:39:51.456Z,3.17
2018-09-19T08:43:53.634Z,3.73
2018-09-19T08:47:56.031Z,3.10
2018-09-19T08:51:58.290Z,4.87
2018-09-19T08:56:00.470Z,5.70
2018-09-19T09:00:02.773Z,5.87
2018-09-19T09:04:05.091Z,5.70
2018-09-19T09:08:07.428Z,4.80
2018-09-19T09:12:09.676Z,5.50
2018-09-19T09:16:11.874Z,5.60
2018-09-19T09:20:14.132Z,5.00
2018-09-19T09:24:16.320Z,5.83
2018-09-19T09:28:18.528Z,5.47
2018-09-19T09:33:50.244Z,4.83
2018-09-19T09:37:52.447Z,5.10
2018-09-19T09:41:54.661Z,5.37
2018-09-19T09:45:57.754Z,5.53
2018-09-19T09:49:59.925Z,4.40
2018-09-19T09:54:02.139Z,3.10
2018-09-19T09:58:04.333Z,2.43
2018-09-19T10:02:06.572Z,3.40
2018-09-19T10:06:08.783Z,3.20
2018-09-19T10:10:11.010Z,4.17
2018-09-19T10:14:13.243Z,3.50
2018-09-19T10:18:15.438Z,3.07
2018-09-19T10:22:17.598Z,3.03
2018-09-19T10:26:19.949Z,3.50
2018-09-19T10:30:22.112Z,3.20
2018-09-19T10:34:24.274Z,3.57
2018-09-19T10:38:26.469Z,4.10
2018-09-19T10:43:58.325Z,4.90
2018-09-19T10:48:00.478Z,4.27
2018-09-19T10:52:02.682Z,3.40
2018-09-19T10:56:04.999Z,4.03
2018-09-19T11:00:07.731Z,3.93
2018-09-19T11:04:10.037Z,3.93
2018-09-19T11:08:12.238Z,4.63
2018-09-19T11:12:14.480Z,4.53
2018-09-19T11:16:16.650Z,3.30
2018-09-19T11:20:18.843Z,3.30
2018-09-19T11:24:21.013Z,3.97
2018-09-19T11:28:23.212Z,3.70
2018-09-19T11:32:25.539Z,4.27
2018-09-19T11:36:27.700Z,3.83
2018-09-19T11:40:30.002Z,4.97
2018-09-19T11:44:32.235Z,5.17
2018-09-19T11:48:34.904Z,4.23
2018-09-19T11:52:37.147Z,4.27
2018-09-19T11:56:40.006Z,5.27
2018-09-19T12:00:42.187Z,3.77
2018-09-19T12:04:44.412Z,3.87
2018-09-19T12:08:46.632Z,4.17
2018-09-19T12:12:48.871Z,4.00
2018-09-19T12:16:51.083Z,4.10
2018-09-19T12:20:53.294Z,3.20
2018-09-19T12:24:55.506Z,3.93
2018-09-19T12:28:57.671Z,3.83
2018-09-19T12:32:59.932Z,3.40
2018-09-19T12:37:02.139Z,3.97
2018-09-19T12:41:05.877Z,4.00
2018-09-19T12:45:08.707Z,4.07
2018-09-19T12:49:10.985Z,3.63
2018-09-19T12:53:13.293Z,2.77
2018-09-19T12:57:15.466Z,3.50
2018-09-19T13:01:17.612Z,4.00
2018-09-19T13:05:19.837Z,4.60
2018-09-19T13:09:22.011Z,4.57
2018-09-19T13:13:24.226Z,4.37
2018-09-19T13:17:26.430Z,4.37
2018-09-19T13:21:28.753Z,3.70
2018-09-19T13:25:31.103Z,4.03
2018-09-19T13:29:33.608Z,3.47
2018-09-19T13:33:35.837Z,3.87
2018-09-19T13:37:38.038Z,4.80
2018-09-19T13:41:41.242Z,4.87
2018-09-19T13:45:44.584Z,4.33
2018-09-19T13:49:52.670Z,4.20
2018-09-19T13:53:54.945Z,3.33
2018-09-19T13:57:58.139Z,3.30
2018-09-19T14:02:00.434Z,3.30
2018-09-19T14:06:02.832Z,3.30
2018-09-19T14:10:05.214Z,3.77
2018-09-19T14:14:07.516Z,3.87
2018-09-19T14:18:09.818Z,3.37
2018-09-19T14:22:12.027Z,3.57
2018-09-19T14:26:14.244Z,3.33
2018-09-19T14:30:16.481Z,3.20
2018-09-19T14:34:18.662Z,3.90
2018-09-19T14:38:20.955Z,3.83
2018-09-19T14:42:23.212Z,3.30
2018-09-19T14:46:25.428Z,4.70
2018-09-19T14:50:27.718Z,3.47
2018-09-19T14:54:30.067Z,3.63
2018-09-19T14:58:32.181Z,4.27
2018-09-19T15:02:34.422Z,3.07
2018-09-19T15:06:36.702Z,4.30
2018-09-19T15:10:38.984Z,4.00
2018-09-19T15:14:41.145Z,3.60
2018-09-19T15:18:43.357Z,4.80
2018-09-19T15:22:45.572Z,3.67
2018-09-19T15:26:47.878Z,4.77
2018-09-19T15:30:50.079Z,4.10
2018-09-19T15:34:52.972Z,4.00
2018-09-19T15:38:55.164Z,3.83
2018-09-19T15:42:57.463Z,4.33
2018-09-19T15:46:59.648Z,4.27
2018-09-19T15:51:01.914Z,4.33
2018-09-19T15:55:04.289Z,4.20
2018-09-19T15:59:06.516Z,3.93
2018-09-19T16:03:08.868Z,4.23
2018-09-19T16:07:11.158Z,4.30
2018-09-19T16:11:13.523Z,4.37
2018-09-19T16:15:15.831Z,3.50
2018-09-19T16:19:18.040Z,4.30
2018-09-19T16:23:20.213Z,4.70
2018-09-19T16:27:22.472Z,3.67
2018-09-19T16:31:24.780Z,3.90
2018-09-19T16:35:26.984Z,4.03
2018-09-19T16:39:29.808Z,4.40
2018-09-19T16:43:32.178Z,4.40
2018-09-19T16:47:34.464Z,3.77
2018-09-19T16:51:36.687Z,4.70
2018-09-19T16:55:38.994Z,4.13
2018-09-19T16:59:41.329Z,4.97
2018-09-19T17:03:43.641Z,4.00
2018-09-19T17:07:45.927Z,4.47
2018-09-19T17:11:48.403Z,4.53
2018-09-19T17:15:51.160Z,4.40
2018-09-19T17:19:54.413Z,3.70
2018-09-19T17:23:56.727Z,4.13
2018-09-19T17:27:58.901Z,4.53
2018-09-19T17:32:01.240Z,4.33
2018-09-19T17:36:03.904Z,4.20
2018-09-19T17:40:06.776Z,5.03
2018-09-19T17:44:09.042Z,5.30
2018-09-19T17:48:11.316Z,4.90
2018-09-19T17:52:13.601Z,4.50
2018-09-19T17:56:15.854Z,5.70
2018-09-19T18:00:18.276Z,4.72
2018-09-19T18:04:21.038Z,4.90
2018-09-19T18:08:24.083Z,6.40
2018-09-19T18:12:26.492Z,6.73
2018-09-19T18:16:28.918Z,5.20
2018-09-19T18:20:31.223Z,5.17
2018-09-19T18:24:33.455Z,4.40
2018-09-19T18:28:35.749Z,4.83
2018-09-19T18:32:38.011Z,5.30
2018-09-19T18:36:40.309Z,5.43
2018-09-19T18:40:42.801Z,5.27
2018-09-19T18:44:45.125Z,5.10
2018-09-19T18:48:47.323Z,5.00
2018-09-19T18:52:49.532Z,5.17
2018-09-19T18:56:52.178Z,4.80
2018-09-19T19:00:54.430Z,4.97
2018-09-19T19:04:57.819Z,4.67
2018-09-19T19:09:00.540Z,5.27
2018-09-19T19:13:02.720Z,5.80
2018-09-19T19:17:05.341Z,5.23
2018-09-19T19:21:07.616Z,5.50
2018-09-19T19:25:10.016Z,5.43
2018-09-19T19:29:12.235Z,5.67
2018-09-19T19:33:14.432Z,5.33
2018-09-19T19:37:17.423Z,6.63
2018-09-19T19:41:19.627Z,6.10
2018-09-19T19:45:22.684Z,7.00
2018-09-19T19:49:24.853Z,5.63
2018-09-19T19:53:27.235Z,5.57
2018-09-19T19:57:29.526Z,6.03
2018-09-19T20:01:31.723Z,5.37
2018-09-19T20:05:34.288Z,6.17
2018-09-19T20:09:36.529Z,6.27
2018-09-19T20:13:39.490Z,5.47
2018-09-19T20:17:41.758Z,5.25
2018-09-19T20:21:43.952Z,4.90
2018-09-19T20:25:46.209Z,6.03
2018-09-19T20:29:48.402Z,5.70
2018-09-19T20:33:50.609Z,7.13
2018-09-19T20:37:53.192Z,6.40
2018-09-19T20:41:55.367Z,7.40
2018-09-19T20:45:57.566Z,6.43
2018-09-19T20:49:59.807Z,6.67
2018-09-19T20:54:01.983Z,5.60
2018-09-19T20:58:04.167Z,6.23
2018-09-19T21:02:06.356Z,5.83
2018-09-19T21:06:08.524Z,6.27
2018-09-19T21:10:10.697Z,6.83
2018-09-19T21:14:12.896Z,6.73
2018-09-19T21:18:15.203Z,7.43
2018-09-19T21:22:17.592Z,6.77
2018-09-19T21:26:19.625Z,7.03
2018-09-19T21:30:21.824Z,7.47
2018-09-19T21:34:24.057Z,6.97
2018-09-19T21:38:26.189Z,7.40
2018-09-19T21:42:28.386Z,6.30
2018-09-19T21:46:30.533Z,6.50
2018-09-19T21:50:32.726Z,7.40
2018-09-19T21:54:34.920Z,6.87
2018-09-19T21:58:37.140Z,7.27
2018-09-19T22:02:39.461Z,7.63
2018-09-19T22:06:41.667Z,7.07
2018-09-19T22:10:43.849Z,7.83
2018-09-19T22:14:46.065Z,7.07
2018-09-19T22:18:48.319Z,7.70
2018-09-19T22:22:50.495Z,7.00
2018-09-19T22:26:52.686Z,7.23
2018-09-19T22:30:55.479Z,7.90
2018-09-19T22:34:57.702Z,9.40
2018-09-19T22:38:59.900Z,8.33
2018-09-19T22:43:02.218Z,8.23
2018-09-19T22:47:04.569Z,8.30
2018-09-19T22:51:06.832Z,8.53
2018-09-19T22:55:09.002Z,9.80
2018-09-19T22:59:11.159Z,7.80
2018-09-19T23:03:13.310Z,7.33
2018-09-19T23:07:15.512Z,6.47
2018-09-19T23:11:17.710Z,8.03
2018-09-19T23:15:19.877Z,8.23
2018-09-19T23:19:22.132Z,7.23
2018-09-19T23:23:24.315Z,7.67
2018-09-19T23:27:26.505Z,8.00
2018-09-19T23:31:28.715Z,7.90
2018-09-19T23:35:30.915Z,8.30
2018-09-19T23:39:33.125Z,9.23
2018-09-19T23:43:35.326Z,7.93
2018-09-19T23:47:37.535Z,8.07
2018-09-19T23:51:39.792Z,7.33
2018-09-19T23:55:41.988Z,7.13
2018-09-19T23:59:44.229Z,8.50
